Time;durP1;ratioP1;P1;durP2;ratioP2;P2;SDS_P1;SDS_P2;PMS_P1;PMS_P2;Temp;Humidity;BMP_temperature;BMP_pressure;BME280_temperature;BME280_humidity;BME280_pressure;Samples;Min_cycle;Max_cycle;Signal;HPM_P1;HPM_P2
2023/06/14 00:00:26;;;;;;;0.20;0.20;;;;;;;19.60;77.09;101491.34;10459824;28;20048;-81
2023/06/14 00:05:29;;;;;;;0.40;0.15;;;;;;;19.46;79.25;101496.59;10446776;28;20046;-83
2023/06/14 00:10:32;;;;;;;0.52;0.35;;;;;;;19.65;75.97;101493.97;10444953;28;20041;-82
2023/06/14 00:15:34;;;;;;;0.10;0.10;;;;;;;19.60;76.69;101486.13;10447341;28;20094;-82
2023/06/14 00:20:35;;;;;;;0.47;0.20;;;;;;;19.51;77.39;101493.97;10459237;28;20047;-81
2023/06/14 00:25:37;;;;;;;0.68;0.57;;;;;;;19.56;77.63;101505.28;10452504;28;20056;-82
2023/06/14 00:30:39;;;;;;;0.22;0.22;;;;;;;19.29;78.55;101501.84;10437128;28;20059;-82
2023/06/14 00:35:41;;;;;;;0.25;0.20;;;;;;;19.57;78.44;101512.25;10452600;28;20601;-82
2023/06/14 00:40:42;;;;;;;0.20;0.17;;;;;;;19.60;77.03;101511.38;10441070;28;20040;-82
2023/06/14 00:45:49;;;;;;;1.60;0.40;;;;;;;19.34;78.39;101513.16;10453825;28;20124;-81
2023/06/14 00:50:52;;;;;;;0.57;0.30;;;;;;;19.43;77.72;101517.53;10438249;28;20114;-82
2023/06/14 00:55:54;;;;;;;0.73;0.30;;;;;;;19.25;80.64;101515.75;10452119;28;20052;-81
2023/06/14 01:00:56;;;;;;;0.08;0.08;;;;;;;19.40;78.63;101524.50;10470138;28;20047;-81
2023/06/14 01:06:15;;;;;;;0.00;0.00;;;;;;;19.22;79.01;101523.63;10445980;28;20150;-82
2023/06/14 01:11:26;;;;;;;0.68;0.45;;;;;;;19.23;78.94;101522.75;10445866;28;20065;-82
2023/06/14 01:16:29;;;;;;;0.20;0.20;;;;;;;18.90;83.71;101523.56;10451979;28;20132;-81
2023/06/14 01:21:36;;;;;;;0.43;0.20;;;;;;;18.73;84.92;101526.16;10442553;28;20040;-81
2023/06/14 01:26:45;;;;;;;0.10;0.10;;;;;;;18.85;82.07;101523.56;10451890;28;20461;-81
2023/06/14 01:31:47;;;;;;;0.30;0.20;;;;;;;18.40;88.17;101518.22;10451098;28;20044;-81
2023/06/14 01:36:50;;;;;;;0.00;0.00;;;;;;;18.41;86.72;101519.13;10449533;28;20048;-81
2023/06/14 01:41:53;;;;;;;0.30;0.17;;;;;;;18.42;88.87;101516.50;10464899;28;20446;-81
2023/06/14 01:46:54;;;;;;;0.20;0.20;;;;;;;18.63;88.00;101520.91;10454515;28;20076;-81
2023/06/14 01:51:57;;;;;;;0.40;0.22;;;;;;;18.54;86.47;101521.75;10458726;28;20045;-81
2023/06/14 01:56:58;;;;;;;0.00;0.00;;;;;;;18.27;89.32;101517.34;10442522;28;20052;-81
2023/06/14 02:02:03;;;;;;;0.85;0.40;;;;;;;17.98;92.47;101517.19;10426547;28;20040;-81
2023/06/14 02:07:06;;;;;;;0.20;0.20;;;;;;;18.13;89.36;101519.88;10466408;28;20045;-81
2023/06/14 02:12:08;;;;;;;0.03;0.03;;;;;;;18.35;86.63;101515.63;10460230;28;20049;-81
2023/06/14 02:17:10;;;;;;;0.20;0.20;;;;;;;18.22;88.03;101519.03;10450737;28;20056;-81
2023/06/14 02:22:14;;;;;;;0.00;0.00;;;;;;;18.19;87.89;101519.03;10459295;28;20062;-81
2023/06/14 02:27:16;;;;;;;0.10;0.10;;;;;;;18.31;89.05;101518.22;10465873;28;20079;-81
2023/06/14 02:32:18;;;;;;;0.03;0.03;;;;;;;17.85;89.75;101513.63;10441719;28;20468;-81
2023/06/14 02:37:20;;;;;;;0.15;0.10;;;;;;;17.84;90.68;101511.88;10445098;28;20041;-81
2023/06/14 02:42:22;;;;;;;0.10;0.00;;;;;;;17.73;90.99;101524.84;10449081;28;20045;-81
2023/06/14 02:47:24;;;;;;;1.85;0.70;;;;;;;17.64;92.03;101530.00;10477047;28;20045;-81
2023/06/14 02:52:26;;;;;;;0.00;0.00;;;;;;;17.53;92.84;101527.34;10435409;28;20056;-81
2023/06/14 02:57:27;;;;;;;0.00;0.00;;;;;;;17.62;95.60;101531.72;10464393;28;20583;-80
2023/06/14 03:02:29;;;;;;;0.00;0.00;;;;;;;17.53;93.35;101532.53;10446960;28;20032;-82
2023/06/14 03:07:31;;;;;;;0.80;0.40;;;;;;;17.66;94.53;101539.56;10439726;28;20049;-80
2023/06/14 03:12:33;;;;;;;0.28;0.20;;;;;;;17.44;94.85;101539.44;10436624;28;20045;-81
2023/06/14 03:17:38;;;;;;;0.10;0.10;;;;;;;17.54;96.55;101555.09;10456047;28;20079;-80
2023/06/14 03:22:41;;;;;;;0.28;0.10;;;;;;;17.50;96.30;101556.81;10443672;28;20055;-81
2023/06/14 03:27:43;;;;;;;0.47;0.30;;;;;;;17.42;95.24;101561.13;10455542;28;20045;-81
2023/06/14 03:32:46;;;;;;;0.10;0.00;;;;;;;17.35;95.98;101559.31;10427215;28;20063;-81
2023/06/14 03:37:48;;;;;;;0.10;0.10;;;;;;;17.45;97.62;101566.34;10455055;28;20149;-81
2023/06/14 03:42:50;;;;;;;0.05;0.05;;;;;;;17.25;98.37;101576.56;10454147;28;20090;-80
2023/06/14 03:47:54;;;;;;;0.57;0.10;;;;;;;17.17;98.13;101575.63;10452047;28;20072;-81
2023/06/14 03:52:57;;;;;;;0.10;0.10;;;;;;;17.18;98.63;101583.47;10459033;28;20045;-80
2023/06/14 03:57:59;;;;;;;0.00;0.00;;;;;;;17.47;96.77;101585.47;10470253;28;20045;-81
2023/06/14 04:03:04;;;;;;;0.00;0.00;;;;;;;17.59;97.55;101584.69;10451037;28;20033;-81
2023/06/14 04:08:08;;;;;;;7.13;0.32;;;;;;;17.47;98.14;101590.69;10467394;28;20200;-80
2023/06/14 04:13:13;;;;;;;0.70;0.10;;;;;;;17.72;99.18;101599.56;10462465;28;20071;-80
2023/06/14 04:18:15;;;;;;;0.32;0.20;;;;;;;17.65;99.88;101597.75;10464337;28;20127;-81
2023/06/14 04:23:21;;;;;;;0.00;0.00;;;;;;;17.57;100.00;101617.66;10446208;28;20048;-81
2023/06/14 04:28:26;;;;;;;0.00;0.00;;;;;;;17.86;99.89;101620.50;10434748;28;20068;-80
2023/06/14 04:33:31;;;;;;;0.20;0.20;;;;;;;17.90;100.00;101621.41;10440225;28;20594;-80
2023/06/14 04:38:34;;;;;;;0.00;0.00;;;;;;;18.10;100.00;101615.47;10453377;28;20041;-80
2023/06/14 04:43:37;;;;;;;0.22;0.10;;;;;;;17.99;98.67;101621.47;10452671;28;20045;-80
2023/06/14 04:48:42;;;;;;;0.40;0.20;;;;;;;18.47;100.00;101626.09;10456912;28;20116;-81
2023/06/14 04:53:45;;;;;;;3.83;0.63;;;;;;;18.46;99.84;101634.78;10453015;28;20526;-80
2023/06/14 04:58:46;;;;;;;0.77;0.10;;;;;;;18.50;99.56;101639.19;10452508;28;20049;-80
2023/06/14 05:03:49;;;;;;;0.00;0.00;;;;;;;18.72;100.00;101645.34;10463332;28;20036;-80
2023/06/14 05:08:51;;;;;;;0.28;0.10;;;;;;;18.84;100.00;101649.75;10454051;28;20562;-80
2023/06/14 05:13:54;;;;;;;0.10;0.10;;;;;;;19.06;100.00;101647.22;10467794;28;20071;-80
2023/06/14 05:18:56;;;;;;;0.52;0.25;;;;;;;18.83;100.00;101659.31;10452113;28;20408;-81
2023/06/14 05:23:58;;;;;;;0.45;0.20;;;;;;;19.23;100.00;101658.59;10438204;28;20041;-80
2023/06/14 05:29:01;;;;;;;1.38;0.20;;;;;;;19.38;98.13;101656.88;10448741;28;20055;-82
2023/06/14 05:34:03;;;;;;;1.60;1.10;;;;;;;19.70;100.00;101654.28;10460752;28;20143;-79
2023/06/14 05:39:05;;;;;;;1.02;0.35;;;;;;;19.75;99.08;101654.28;10459955;28;20045;-80
2023/06/14 05:44:08;;;;;;;0.90;0.70;;;;;;;19.80;97.96;101660.34;10450401;28;20105;-80
2023/06/14 05:49:11;;;;;;;0.90;0.47;;;;;;;20.06;98.50;101668.22;10459833;28;20053;-80
2023/06/14 05:54:13;;;;;;;0.10;0.10;;;;;;;20.33;95.70;101674.25;10467423;28;20041;-81
2023/06/14 05:59:15;;;;;;;0.40;0.28;;;;;;;20.44;96.45;101669.88;10445571;28;20037;-80
2023/06/14 06:04:16;;;;;;;0.20;0.20;;;;;;;20.71;94.28;101677.63;10451071;28;20049;-82
2023/06/14 06:09:19;;;;;;;0.00;0.00;;;;;;;20.89;93.13;101688.06;10459713;28;20564;-80
2023/06/14 06:14:20;;;;;;;0.00;0.00;;;;;;;20.96;93.18;101682.81;10458331;28;20045;-80
2023/06/14 06:19:22;;;;;;;0.35;0.28;;;;;;;21.03;90.03;101682.75;10440865;28;20052;-81
2023/06/14 06:24:23;;;;;;;0.10;0.10;;;;;;;21.37;90.65;101679.91;10467328;28;20519;-80
2023/06/14 06:29:25;;;;;;;0.10;0.10;;;;;;;21.46;90.36;101692.13;10458246;28;20763;-81
2023/06/14 06:34:27;;;;;;;0.00;0.00;;;;;;;21.97;89.28;101690.88;10459600;28;20071;-81
2023/06/14 06:39:29;;;;;;;0.32;0.22;;;;;;;21.40;87.90;101700.03;10468727;28;20036;-82
2023/06/14 06:44:30;;;;;;;0.25;0.25;;;;;;;22.27;87.66;101705.44;10447804;28;20041;-81
2023/06/14 06:49:33;;;;;;;0.15;0.10;;;;;;;22.04;83.37;101703.03;10455531;28;20094;-81
2023/06/14 06:54:35;;;;;;;0.10;0.10;;;;;;;22.69;83.15;101712.88;10462469;28;20448;-81
2023/06/14 06:59:36;;;;;;;0.10;0.10;;;;;;;23.04;79.24;101703.72;10455161;28;20047;-82
2023/06/14 07:04:38;;;;;;;0.15;0.10;;;;;;;23.08;76.20;101717.66;10431876;28;20044;-82
2023/06/14 07:09:41;;;;;;;0.10;0.10;;;;;;;23.28;74.60;101712.16;10461770;28;20044;-82
2023/06/14 07:14:43;;;;;;;0.10;0.00;;;;;;;23.86;75.32;101727.94;10450588;28;20548;-83
2023/06/14 07:19:45;;;;;;;0.05;0.05;;;;;;;24.39;76.42;101730.53;10448594;28;20121;-83
2023/06/14 07:24:48;;;;;;;0.10;0.10;;;;;;;25.09;78.12;101726.53;10461392;28;20037;-82
2023/06/14 07:29:50;;;;;;;0.30;0.30;;;;;;;25.61;73.62;101721.84;10451360;28;20055;-81
2023/06/14 07:34:52;;;;;;;0.15;0.10;;;;;;;25.62;70.21;101719.16;10464393;28;20059;-82
2023/06/14 07:39:53;;;;;;;0.20;0.10;;;;;;;25.98;72.12;101721.78;10439566;28;20131;-83
2023/06/14 07:44:55;;;;;;;0.50;0.30;;;;;;;25.23;67.14;101729.72;10434047;28;20057;-82
2023/06/14 07:49:57;;;;;;;0.38;0.28;;;;;;;26.17;67.18;101721.34;10449156;28;20045;-82
2023/06/14 07:55:00;;;;;;;0.00;0.00;;;;;;;25.84;65.09;101726.56;10435819;28;20487;-82
2023/06/14 08:00:02;;;;;;;0.00;0.00;;;;;;;26.44;65.13;101729.41;10447412;28;22167;-85
2023/06/14 08:05:12;;;;;;;0.43;0.30;;;;;;;25.92;64.42;101724.59;10449100;28;20053;-82
2023/06/14 08:10:14;;;;;;;0.20;0.10;;;;;;;26.45;63.80;101734.66;10431716;28;20056;-82
2023/06/14 08:15:17;;;;;;;0.00;0.00;;;;;;;27.66;68.74;101735.53;10422994;28;20049;-81
2023/06/14 08:20:22;;;;;;;0.10;0.10;;;;;;;27.17;64.24;101732.63;10430723;28;20099;-81
2023/06/14 08:25:24;;;;;;;0.20;0.20;;;;;;;26.89;63.59;101734.34;10432557;28;20052;-82
2023/06/14 08:30:26;;;;;;;0.28;0.28;;;;;;;26.97;64.50;101731.44;10456093;28;20052;-82
2023/06/14 08:35:28;;;;;;;0.00;0.00;;;;;;;27.49;62.77;101736.94;10452641;28;20054;-82
2023/06/14 08:40:30;;;;;;;0.00;0.00;;;;;;;27.19;57.99;101736.06;10435828;28;20077;-82
2023/06/14 08:45:32;;;;;;;0.10;0.10;;;;;;;26.95;59.71;101725.38;10430202;28;20155;-85
2023/06/14 08:50:39;;;;;;;0.80;0.35;;;;;;;27.27;61.42;101734.06;10449252;28;20407;-82
2023/06/14 08:55:41;;;;;;;0.20;0.20;;;;;;;26.08;57.77;101724.22;10451164;28;20059;-83
2023/06/14 09:00:44;;;;;;;0.00;0.00;;;;;;;27.00;59.60;101714.63;10445404;28;20037;-82
2023/06/14 09:05:47;;;;;;;0.00;0.00;;;;;;;27.49;56.33;101717.53;10433051;28;20048;-83
2023/06/14 09:10:49;;;;;;;0.00;0.00;;;;;;;27.66;53.44;101714.38;10428739;28;20052;-82
2023/06/14 09:15:51;;;;;;;0.32;0.30;;;;;;;27.76;57.84;101717.56;10423093;28;20523;-83
2023/06/14 09:20:53;;;;;;;0.30;0.30;;;;;;;26.76;51.44;101723.25;10451749;28;20048;-83
2023/06/14 09:25:55;;;;;;;0.80;0.45;;;;;;;26.47;49.82;101725.81;10445784;28;20480;-84
2023/06/14 09:30:56;;;;;;;0.00;0.00;;;;;;;27.01;52.88;101726.94;10433790;28;20068;-82
2023/06/14 09:35:58;;;;;;;0.00;0.00;;;;;;;28.17;53.08;101718.81;10449909;28;20447;-82
2023/06/14 09:41:04;;;;;;;0.00;0.00;;;;;;;27.28;52.73;101724.38;10445160;28;20049;-84
2023/06/14 09:46:06;;;;;;;0.00;0.00;;;;;;;28.30;53.13;101734.25;10449438;28;20047;-82
2023/06/14 09:51:13;;;;;;;0.10;0.10;;;;;;;28.13;52.69;101730.41;10456479;28;20049;-83
2023/06/14 09:56:41;;;;;;;0.00;0.00;;;;;;;28.06;51.48;101741.31;10422582;28;20130;-83
2023/06/14 10:01:44;;;;;;;0.52;0.20;;;;;;;28.06;51.63;101738.66;10430245;28;20072;-82
2023/06/14 10:06:47;;;;;;;0.10;0.10;;;;;;;27.93;47.67;101739.03;10437946;28;20072;-82
2023/06/14 10:11:49;;;;;;;0.10;0.10;;;;;;;26.88;49.48;101743.19;10440481;28;20053;-82
2023/06/14 10:16:56;;;;;;;0.10;0.08;;;;;;;27.20;47.04;101744.00;10445720;28;20052;-84
2023/06/14 10:22:03;;;;;;;0.00;0.00;;;;;;;28.58;48.25;101742.09;10439813;28;20049;-81
2023/06/14 10:27:10;;;;;;;0.00;0.00;;;;;;;28.40;52.61;101743.63;10452110;28;20412;-83
2023/06/14 10:32:11;;;;;;;0.10;0.10;;;;;;;27.47;49.63;101752.00;10451622;28;20076;-81
2023/06/14 10:37:14;;;;;;;0.22;0.20;;;;;;;26.96;50.28;101742.06;10451367;28;20126;-82
2023/06/14 10:42:15;;;;;;;0.15;0.15;;;;;;;27.90;49.97;101740.91;10458484;28;20045;-84
2023/06/14 10:47:32;;;;;;;0.20;0.20;;;;;;;28.75;54.74;101738.84;10444831;28;20045;-82
2023/06/14 10:52:38;;;;;;;0.00;0.00;;;;;;;28.19;50.82;101737.28;10439098;28;20055;-83
2023/06/14 10:57:49;;;;;;;0.00;0.00;;;;;;;27.90;49.93;101727.66;10440761;28;20168;-82
2023/06/14 11:03:13;;;;;;;0.05;0.00;;;;;;;28.60;51.56;101728.78;10437946;28;20045;-82
2023/06/14 11:08:33;;;;;;;0.10;0.05;;;;;;;28.17;51.06;101720.59;10434381;28;20049;-82
2023/06/14 11:13:39;;;;;;;0.05;0.05;;;;;;;28.12;52.58;101728.69;10451338;28;20048;-82
2023/06/14 11:18:42;;;;;;;0.30;0.30;;;;;;;27.95;53.62;101723.94;10443001;28;20415;-82
2023/06/14 11:23:50;;;;;;;0.40;0.15;;;;;;;28.37;52.74;101726.97;10449733;28;20064;-82
2023/06/14 11:28:56;;;;;;;0.08;0.08;;;;;;;27.65;51.83;101739.09;10449708;28;20080;-83
2023/06/14 11:33:59;;;;;;;0.05;0.05;;;;;;;28.07;53.15;101728.00;10447508;28;20045;-81
2023/06/14 11:39:06;;;;;;;0.63;0.40;;;;;;;28.52;51.10;101722.88;10449251;28;20066;-82
2023/06/14 11:44:09;;;;;;;0.10;0.10;;;;;;;28.25;50.28;101721.19;10459297;28;20053;-81
2023/06/14 11:49:10;;;;;;;0.00;0.00;;;;;;;28.44;52.85;101723.19;10448636;28;20056;-80
2023/06/14 11:54:12;;;;;;;0.30;0.30;;;;;;;27.36;50.74;101725.00;10433241;28;20491;-83
2023/06/14 11:59:14;;;;;;;0.00;0.00;;;;;;;27.46;48.72;101729.09;10450511;28;20501;-83
2023/06/14 12:04:24;;;;;;;0.00;0.00;;;;;;;27.89;50.24;101728.59;10441657;28;20049;-84
2023/06/14 12:09:26;;;;;;;0.00;0.00;;;;;;;27.51;47.26;101724.53;10443361;28;20055;-83
2023/06/14 12:14:29;;;;;;;0.00;0.00;;;;;;;27.53;48.29;101722.69;10448631;28;20496;-84
2023/06/14 12:19:31;;;;;;;0.20;0.10;;;;;;;27.29;50.60;101731.41;10427137;28;20048;-83
2023/06/14 12:24:33;;;;;;;0.43;0.43;;;;;;;27.18;48.49;101735.22;10432358;28;20045;-83
2023/06/14 12:29:35;;;;;;;0.10;0.10;;;;;;;26.97;50.00;101725.31;10447352;28;20090;-83
2023/06/14 12:34:37;;;;;;;0.00;0.00;;;;;;;27.27;50.05;101717.34;10447139;28;20041;-83
2023/06/14 12:39:39;;;;;;;0.10;0.10;;;;;;;27.08;47.23;101723.19;10447121;28;20140;-83
2023/06/14 12:44:42;;;;;;;0.40;0.20;;;;;;;27.80;51.76;101722.72;10430437;28;20047;-81
2023/06/14 12:49:44;;;;;;;0.20;0.15;;;;;;;27.60;48.87;101711.88;10445769;28;20045;-82
2023/06/14 12:54:46;;;;;;;0.10;0.10;;;;;;;27.99;52.16;101716.75;10430000;28;20059;-83
2023/06/14 12:59:47;;;;;;;0.00;0.00;;;;;;;27.24;47.49;101723.59;10446680;28;20059;-83
2023/06/14 13:04:49;;;;;;;0.10;0.10;;;;;;;26.68;48.46;101735.78;10450311;28;20061;-83
2023/06/14 13:09:51;;;;;;;0.00;0.00;;;;;;;27.11;51.24;101733.69;10446189;28;20060;-82
2023/06/14 13:14:53;;;;;;;0.00;0.00;;;;;;;27.36;52.33;101725.00;10451791;28;20456;-84
2023/06/14 13:19:54;;;;;;;0.10;0.10;;;;;;;27.33;49.16;101728.56;10437358;28;20572;-84
2023/06/14 13:24:56;;;;;;;0.10;0.10;;;;;;;27.37;52.50;101729.34;10430417;28;20055;-83
2023/06/14 13:29:58;;;;;;;0.10;0.10;;;;;;;27.55;52.97;101723.50;10444959;28;20520;-82
2023/06/14 13:34:59;;;;;;;0.00;0.00;;;;;;;27.51;49.29;101737.78;10444554;28;20057;-83
2023/06/14 13:40:01;;;;;;;0.22;0.10;;;;;;;27.47;52.58;101733.47;10442539;28;20048;-82
2023/06/14 13:45:04;;;;;;;0.90;0.35;;;;;;;27.33;51.66;101717.16;10433237;28;20049;-82
2023/06/14 13:50:06;;;;;;;0.00;0.00;;;;;;;27.15;52.76;101719.44;10439164;28;20052;-83
2023/06/14 13:55:09;;;;;;;0.20;0.20;;;;;;;27.89;53.87;101708.28;10470842;28;20131;-83
2023/06/14 14:00:12;;;;;;;0.20;0.05;;;;;;;27.57;50.28;101710.22;10450926;28;20070;-83
2023/06/14 14:05:15;;;;;;;0.30;0.20;;;;;;;27.74;50.26;101709.66;10454561;28;20049;-82
2023/06/14 14:10:17;;;;;;;0.00;0.00;;;;;;;27.12;49.99;101703.69;10453887;28;20060;-84
2023/06/14 14:15:19;;;;;;;0.05;0.05;;;;;;;26.67;49.27;101710.25;10437641;28;20064;-83
2023/06/14 14:20:20;;;;;;;0.00;0.00;;;;;;;27.86;52.05;101706.59;10437259;28;20045;-82
2023/06/14 14:25:22;;;;;;;0.00;0.00;;;;;;;27.47;50.30;101699.06;10465895;28;20053;-83
2023/06/14 14:30:24;;;;;;;0.15;0.15;;;;;;;27.07;50.19;101710.88;10451408;28;20533;-83
2023/06/14 14:35:30;;;;;;;0.15;0.15;;;;;;;27.00;50.63;101698.75;10434029;28;20049;-82
2023/06/14 14:40:32;;;;;;;0.00;0.00;;;;;;;27.34;52.33;101708.28;10461713;28;20059;-82
2023/06/14 14:45:34;;;;;;;0.20;0.13;;;;;;;27.40;53.28;101718.69;10446682;28;20045;-82
2023/06/14 14:50:35;;;;;;;0.17;0.00;;;;;;;27.31;52.36;101711.03;10460952;28;20076;-82
2023/06/14 14:55:39;;;;;;;0.38;0.15;;;;;;;27.13;49.17;101705.41;10467695;28;20041;-82
2023/06/14 15:00:40;;;;;;;0.10;0.10;;;;;;;27.39;50.69;101695.78;10424577;28;20415;-82
2023/06/14 15:05:42;;;;;;;0.10;0.10;;;;;;;26.92;50.35;101713.06;10435570;28;20508;-83
2023/06/14 15:10:45;;;;;;;0.52;0.15;;;;;;;27.21;51.14;101708.69;10444616;28;20037;-83
2023/06/14 15:15:46;;;;;;;0.20;0.17;;;;;;;27.37;48.65;101703.78;10464235;28;20049;-83
2023/06/14 15:20:49;;;;;;;0.03;0.03;;;;;;;26.56;45.76;101700.00;10453071;28;20052;-82
2023/06/14 15:25:51;;;;;;;3.83;1.67;;;;;;;26.91;51.18;101700.78;10453881;28;20136;-82
2023/06/14 15:30:54;;;;;;;0.20;0.15;;;;;;;26.84;48.78;101698.38;10453570;28;20468;-82
2023/06/14 15:35:56;;;;;;;0.00;0.00;;;;;;;27.01;49.44;101697.84;10464921;28;20053;-83
2023/06/14 15:40:57;;;;;;;0.25;0.20;;;;;;;26.84;47.32;101696.59;10447487;28;20040;-82
2023/06/14 15:45:59;;;;;;;0.10;0.10;;;;;;;26.78;46.60;101707.34;10463806;28;20049;-83
2023/06/14 15:51:01;;;;;;;0.20;0.10;;;;;;;26.61;48.86;101707.78;10446869;28;20056;-82
2023/06/14 15:56:02;;;;;;;0.45;0.30;;;;;;;26.98;50.80;101709.38;10448161;28;20215;-84
2023/06/14 16:01:04;;;;;;;0.00;0.00;;;;;;;27.10;51.48;101702.84;10448698;28;20053;-83
2023/06/14 16:06:06;;;;;;;0.10;0.10;;;;;;;26.69;51.41;101702.31;10435365;28;20430;-84
2023/06/14 16:11:08;;;;;;;1.05;0.30;;;;;;;27.20;52.73;101696.38;10468759;28;20045;-83
2023/06/14 16:16:10;;;;;;;0.25;0.25;;;;;;;27.36;52.04;101695.91;10437642;28;20080;-82
2023/06/14 16:21:11;;;;;;;0.03;0.00;;;;;;;27.35;52.97;101699.44;10445170;28;20132;-82
2023/06/14 16:26:13;;;;;;;0.55;0.20;;;;;;;27.44;54.16;101683.28;10413703;28;20130;-82
2023/06/14 16:31:17;;;;;;;0.10;0.10;;;;;;;26.98;53.24;101695.31;10447509;28;20060;-82
2023/06/14 16:36:18;;;;;;;0.10;0.10;;;;;;;26.96;52.40;101697.13;10425405;28;20503;-83
2023/06/14 16:41:20;;;;;;;0.00;0.00;;;;;;;27.18;52.19;101690.25;10437798;28;20041;-82
2023/06/14 16:46:29;;;;;;;0.00;0.00;;;;;;;26.92;54.45;101697.22;10437246;28;20060;-82
2023/06/14 16:51:31;;;;;;;0.00;0.00;;;;;;;27.08;53.63;101699.38;10438113;28;20041;-82
2023/06/14 16:56:33;;;;;;;0.10;0.10;;;;;;;27.05;54.39;101694.22;10426534;28;20483;-82
2023/06/14 17:01:35;;;;;;;0.00;0.00;;;;;;;27.30;56.65;101701.34;10430342;28;20049;-82
2023/06/14 17:06:36;;;;;;;0.25;0.10;;;;;;;26.56;54.50;101715.84;10462128;28;20048;-84
2023/06/14 17:11:38;;;;;;;0.00;0.00;;;;;;;26.98;56.31;101706.75;10443747;28;20056;-82
2023/06/14 17:16:40;;;;;;;0.20;0.10;;;;;;;27.33;55.86;101702.13;10464649;28;20044;-82
2023/06/14 17:21:49;;;;;;;0.00;0.00;;;;;;;26.85;56.87;101706.25;10436432;28;20496;-84
2023/06/14 17:26:50;;;;;;;0.22;0.22;;;;;;;26.74;54.57;101708.31;10454942;28;20063;-83
2023/06/14 17:31:53;;;;;;;0.10;0.10;;;;;;;26.92;56.35;101707.78;10471111;28;20045;-83
2023/06/14 17:36:55;;;;;;;0.00;0.00;;;;;;;27.04;55.42;101706.53;10454290;28;20488;-83
2023/06/14 17:41:56;;;;;;;0.00;0.00;;;;;;;27.35;57.81;101707.38;10452895;28;20502;-82
2023/06/14 17:46:58;;;;;;;0.32;0.15;;;;;;;27.03;57.35;101714.53;10447067;28;20048;-82
2023/06/14 17:52:00;;;;;;;2.83;0.10;;;;;;;27.12;57.76;101714.25;10438723;28;20041;-82
2023/06/14 17:57:01;;;;;;;0.00;0.00;;;;;;;26.99;59.28;101716.41;10443831;28;20057;-83
2023/06/14 18:02:04;;;;;;;0.77;0.10;;;;;;;26.84;57.44;101720.41;10429634;28;20051;-83
2023/06/14 18:07:05;;;;;;;0.00;0.00;;;;;;;26.42;55.77;101725.94;10442047;28;20049;-82
2023/06/14 18:12:08;;;;;;;0.10;0.10;;;;;;;26.02;55.54;101729.66;10435803;28;20037;-81
2023/06/14 18:17:10;;;;;;;0.90;0.20;;;;;;;26.31;57.11;101733.31;10443815;28;20144;-80
2023/06/14 18:22:12;;;;;;;0.00;0.00;;;;;;;26.31;57.70;101735.97;10444867;28;20056;-82
2023/06/14 18:27:14;;;;;;;0.10;0.10;;;;;;;26.20;59.39;101742.38;10447811;28;20137;-81
2023/06/14 18:32:16;;;;;;;0.13;0.13;;;;;;;26.14;60.04;101745.19;10449034;28;20053;-82
2023/06/14 18:37:17;;;;;;;0.05;0.00;;;;;;;25.97;62.02;101754.38;10465283;28;20056;-81
2023/06/14 18:42:20;;;;;;;0.20;0.17;;;;;;;25.96;61.57;101752.63;10428825;28;20051;-81
2023/06/14 18:47:22;;;;;;;0.20;0.13;;;;;;;25.90;61.04;101752.78;10452259;28;20045;-81
2023/06/14 18:52:23;;;;;;;0.10;0.08;;;;;;;25.89;61.54;101748.41;10435392;28;20512;-81
2023/06/14 18:57:28;;;;;;;0.00;0.00;;;;;;;25.39;64.62;101764.56;10450200;28;20050;-81
2023/06/14 19:02:30;;;;;;;0.15;0.15;;;;;;;25.49;63.96;101757.31;10431208;28;20045;-81
2023/06/14 19:07:32;;;;;;;0.10;0.05;;;;;;;25.52;65.00;101753.72;10444897;28;20065;-81
2023/06/14 19:12:33;;;;;;;0.00;0.00;;;;;;;25.21;63.72;101765.78;10426699;28;20041;-81
2023/06/14 19:17:35;;;;;;;0.00;0.00;;;;;;;25.06;64.60;101769.63;10443644;28;20492;-81
2023/06/14 19:22:37;;;;;;;0.00;0.00;;;;;;;25.05;64.06;101767.03;10450356;28;20060;-81
2023/06/14 19:27:39;;;;;;;0.00;0.00;;;;;;;24.85;63.51;101770.94;10435371;28;20044;-81
2023/06/14 19:32:40;;;;;;;0.00;0.00;;;;;;;24.51;65.16;101779.47;10464556;28;20056;-81
2023/06/14 19:37:42;;;;;;;0.00;0.00;;;;;;;24.45;66.13;101788.34;10449634;28;20068;-81
2023/06/14 19:42:44;;;;;;;0.13;0.10;;;;;;;24.23;65.64;101791.38;10459687;28;20048;-81
2023/06/14 19:47:46;;;;;;;0.00;0.00;;;;;;;24.13;66.59;101802.09;10430154;28;20053;-81
2023/06/14 19:52:47;;;;;;;0.00;0.00;;;;;;;23.76;67.87;101803.50;10448207;28;20175;-81
2023/06/14 19:57:49;;;;;;;0.10;0.00;;;;;;;23.71;68.25;101808.84;10441709;28;20048;-81
2023/06/14 20:02:51;;;;;;;0.10;0.10;;;;;;;23.67;68.72;101811.53;10447351;28;20059;-81
2023/06/14 20:07:53;;;;;;;0.00;0.00;;;;;;;23.51;70.89;101816.13;10436840;28;20118;-81
2023/06/14 20:12:55;;;;;;;0.10;0.10;;;;;;;22.96;77.68;101835.16;10467326;28;20507;-82
2023/06/14 20:17:57;;;;;;;0.00;0.00;;;;;;;22.76;82.12;101830.13;10449085;28;20048;-81
2023/06/14 20:22:58;;;;;;;0.00;0.00;;;;;;;23.07;81.27;101824.53;10447080;28;20138;-81
2023/06/14 20:28:03;;;;;;;0.00;0.00;;;;;;;23.00;78.07;101836.00;10428784;28;20072;-81
2023/06/14 20:33:05;;;;;;;0.10;0.10;;;;;;;22.93;79.34;101836.97;10430163;28;20052;-80
2023/06/14 20:38:06;;;;;;;0.00;0.00;;;;;;;22.61;80.94;101830.28;10430725;28;20040;-81
2023/06/14 20:43:11;;;;;;;0.03;0.03;;;;;;;22.19;85.34;101836.75;10459635;28;20044;-81
2023/06/14 20:48:12;;;;;;;0.08;0.00;;;;;;;22.01;88.79;101839.50;10428172;28;20059;-81
2023/06/14 20:53:14;;;;;;;0.10;0.10;;;;;;;21.32;93.42;101843.34;10445373;28;20076;-81
2023/06/14 20:58:16;;;;;;;0.00;0.00;;;;;;;21.50;97.28;101853.75;10451660;28;20064;-81
2023/06/14 21:03:18;;;;;;;0.00;0.00;;;;;;;21.50;95.30;101848.50;10452872;28;20439;-81
2023/06/14 21:08:20;;;;;;;0.00;0.00;;;;;;;21.78;89.50;101853.63;10446682;28;20488;-81
2023/06/14 21:13:23;;;;;;;0.00;0.00;;;;;;;21.55;87.46;101852.00;10443137;28;20496;-81
2023/06/14 21:18:24;;;;;;;0.00;0.00;;;;;;;21.82;88.79;101850.13;10446118;28;20051;-81
2023/06/14 21:23:26;;;;;;;0.00;0.00;;;;;;;21.09;96.07;101857.41;10453333;28;20369;-81
2023/06/14 21:28:27;;;;;;;0.10;0.00;;;;;;;21.03;93.37;101862.66;10446891;28;20044;-81
2023/06/14 21:33:30;;;;;;;0.05;0.05;;;;;;;20.69;96.69;101853.09;10428820;28;20041;-81
2023/06/14 21:38:32;;;;;;;0.00;0.00;;;;;;;20.50;100.00;101851.34;10443847;28;20060;-81
2023/06/14 21:43:33;;;;;;;0.00;0.00;;;;;;;20.38;100.00;101847.84;10461380;28;20056;-81
2023/06/14 21:48:35;;;;;;;0.00;0.00;;;;;;;20.46;98.16;101847.84;10424667;28;20127;-80
2023/06/14 21:53:37;;;;;;;0.00;0.00;;;;;;;20.42;98.44;101849.59;10438462;28;20048;-81
2023/06/14 21:58:38;;;;;;;0.00;0.00;;;;;;;20.52;95.91;101857.44;10438667;28;20407;-81
2023/06/14 22:03:40;;;;;;;0.32;0.20;;;;;;;20.55;93.76;101860.06;10430151;28;20108;-81
2023/06/14 22:08:42;;;;;;;0.43;0.30;;;;;;;20.49;95.00;101853.09;10440535;28;20057;-81
2023/06/14 22:13:44;;;;;;;0.00;0.00;;;;;;;20.25;97.63;101862.69;10431019;28;20052;-81
2023/06/14 22:18:46;;;;;;;0.10;0.00;;;;;;;20.17;98.66;101858.31;10439485;28;20045;-81
2023/06/14 22:23:48;;;;;;;0.30;0.30;;;;;;;20.70;95.58;101859.19;10441633;28;20041;-81
2023/06/14 22:28:50;;;;;;;0.65;0.10;;;;;;;20.41;95.84;101852.22;10458418;28;20049;-81
2023/06/14 22:33:52;;;;;;;0.10;0.10;;;;;;;20.14;95.19;101874.88;10436875;28;20428;-81
2023/06/14 22:38:54;;;;;;;0.00;0.00;;;;;;;19.99;100.00;101864.41;10454695;28;20057;-81
2023/06/14 22:43:57;;;;;;;0.52;0.08;;;;;;;19.64;100.00;101874.72;10469551;28;20052;-81
2023/06/14 22:49:01;;;;;;;0.00;0.00;;;;;;;20.05;100.00;101864.41;10464308;28;20048;-81
2023/06/14 22:54:05;;;;;;;0.45;0.17;;;;;;;19.98;100.00;101868.72;10467820;28;20051;-81
2023/06/14 22:59:07;;;;;;;0.00;0.00;;;;;;;20.07;100.00;101865.25;10459841;28;20044;-81
2023/06/14 23:04:09;;;;;;;0.13;0.05;;;;;;;19.98;100.00;101876.59;10450823;28;20044;-81
2023/06/14 23:09:11;;;;;;;0.00;0.00;;;;;;;19.53;100.00;101868.56;10429774;28;20082;-81